Time;durP1;ratioP1;P1;durP2;ratioP2;P2;SDS_P1;SDS_P2;PMS_P1;PMS_P2;Temp;Humidity;BMP_temperature;BMP_pressure;BME280_temperature;BME280_humidity;BME280_pressure;Samples;Min_cycle;Max_cycle;Signal;HPM_P1;HPM_P2
2023/01/30 00:02:18;;;;;;;36.35;16.83;;;;;;;7.06;100.00;101609.38;2615369;31;20039;-53
2023/01/30 00:04:46;;;;;;;41.15;18.58;;;;;;;7.15;100.00;101611.47;2615731;36;20049;-57
2023/01/30 00:07:14;;;;;;;35.38;18.77;;;;;;;7.23;100.00;101603.81;2615887;36;20157;-55
2023/01/30 00:09:43;;;;;;;34.67;17.98;;;;;;;7.23;100.00;101601.16;2614317;36;20154;-56
2023/01/30 00:12:11;;;;;;;38.30;17.85;;;;;;;7.25;100.00;101606.41;2617041;36;20787;-58
2023/01/30 00:14:39;;;;;;;35.85;17.27;;;;;;;7.34;100.00;101604.00;2615312;36;20026;-58
2023/01/30 00:17:10;;;;;;;33.15;15.88;;;;;;;7.42;100.00;101582.09;2616183;36;20065;-55
2023/01/30 00:19:38;;;;;;;28.00;15.75;;;;;;;7.49;100.00;101585.25;2614764;36;20041;-52
2023/01/30 00:22:07;;;;;;;27.70;14.90;;;;;;;7.47;100.00;101581.81;2615983;36;20030;-55
2023/01/30 00:24:35;;;;;;;28.45;14.70;;;;;;;7.57;100.00;101588.28;2614987;36;20602;-56
2023/01/30 00:27:03;;;;;;;29.38;14.88;;;;;;;7.60;100.00;101580.06;2616065;36;20037;-56
2023/01/30 00:29:32;;;;;;;31.17;15.75;;;;;;;7.59;100.00;101572.13;2615119;36;20049;-57
2023/01/30 00:32:00;;;;;;;24.95;14.32;;;;;;;7.58;100.00;101565.88;2616309;31;20042;-55
2023/01/30 00:34:31;;;;;;;29.35;15.05;;;;;;;7.61;100.00;101546.97;2616237;36;20042;-55
2023/01/30 00:37:00;;;;;;;26.45;13.55;;;;;;;7.63;100.00;101528.09;2616386;36;20038;-56
2023/01/30 00:39:28;;;;;;;30.03;14.90;;;;;;;7.63;100.00;101526.28;2616048;31;20562;-52
2023/01/30 00:47:18;;;;;;;21.75;12.57;;;;;;;7.85;100.00;101508.78;2616182;36;20034;-56
2023/01/30 00:49:49;;;;;;;20.53;12.77;;;;;;;7.76;100.00;101522.78;2613935;36;20042;-56
2023/01/30 00:52:17;;;;;;;23.73;12.38;;;;;;;7.96;100.00;101510.72;2615267;36;20023;-52
2023/01/30 00:54:46;;;;;;;24.80;10.98;;;;;;;7.95;100.00;101501.84;2615625;36;20412;-54
2023/01/30 00:57:14;;;;;;;25.42;11.48;;;;;;;7.89;100.00;101499.56;2616070;36;20027;-53
2023/01/30 00:59:42;;;;;;;22.88;11.68;;;;;;;7.88;100.00;101495.19;2614209;36;20138;-54
2023/01/30 01:02:10;;;;;;;23.88;11.13;;;;;;;7.83;100.00;101492.81;2615367;36;20026;-56
2023/01/30 01:04:42;;;;;;;27.33;11.82;;;;;;;7.86;100.00;101467.59;2615087;36;20034;-54
2023/01/30 01:07:14;;;;;;;21.58;10.55;;;;;;;7.89;100.00;101464.72;2615700;36;20470;-52
2023/01/30 01:09:43;;;;;;;20.42;10.88;;;;;;;7.85;100.00;101460.53;2614562;36;20046;-54
2023/01/30 01:12:11;;;;;;;21.60;10.60;;;;;;;7.80;100.00;101457.31;2615709;36;20557;-54
2023/01/30 01:14:39;;;;;;;21.25;11.10;;;;;;;7.76;100.00;101458.47;2615524;36;20045;-56
2023/01/30 01:17:08;;;;;;;21.65;11.23;;;;;;;7.79;100.00;101455.56;2616008;36;20031;-50
2023/01/30 01:19:37;;;;;;;21.58;10.30;;;;;;;7.74;100.00;101449.69;2614372;36;20034;-51
2023/01/30 01:22:05;;;;;;;17.55;9.27;;;;;;;7.82;100.00;101452.72;2616231;36;20041;-52
2023/01/30 01:24:36;;;;;;;20.23;10.07;;;;;;;7.82;100.00;101444.69;2615680;31;20550;-53
2023/01/30 01:27:04;;;;;;;17.75;9.88;;;;;;;7.75;100.00;101446.91;2615979;36;20065;-56
2023/01/30 01:29:32;;;;;;;18.20;8.77;;;;;;;7.71;100.00;101459.66;2615483;36;20045;-55
2023/01/30 01:32:01;;;;;;;20.30;9.13;;;;;;;7.78;100.00;101459.22;2615829;36;20343;-54
2023/01/30 01:34:29;;;;;;;21.85;9.25;;;;;;;7.68;100.00;101451.78;2615693;36;20566;-55
2023/01/30 01:36:57;;;;;;;21.30;9.23;;;;;;;7.76;100.00;101453.09;2615734;36;20034;-50
2023/01/30 01:41:00;;;;;;;27.75;10.00;;;;;;;7.68;100.00;101451.78;2616081;36;20042;-52
2023/01/30 01:42:14;;;;;;;18.70;9.63;;;;;;;7.76;100.00;101453.09;2615949;31;20041;-54
2023/01/30 01:45:00;;;;;;;16.88;8.38;;;;;;;7.79;100.00;101452.88;2615841;36;20077;-53
2023/01/30 01:47:28;;;;;;;16.85;9.30;;;;;;;7.77;100.00;101447.63;2615495;36;20041;-50
2023/01/30 01:49:57;;;;;;;26.40;9.57;;;;;;;7.84;100.00;101450.78;2615347;36;20034;-51
2023/01/30 01:52:25;;;;;;;19.00;9.93;;;;;;;7.80;100.00;101454.63;2615947;31;20499;-53
2023/01/30 01:54:56;;;;;;;28.00;10.27;;;;;;;7.93;100.00;101444.78;2615901;31;20034;-52
2023/01/30 01:57:33;;;;;;;16.17;7.95;;;;;;;7.77;100.00;101438.75;2616531;36;20555;-53
2023/01/30 02:00:08;;;;;;;19.77;8.27;;;;;;;7.79;100.00;101440.38;2616035;36;20034;-55
2023/01/30 02:02:37;;;;;;;17.45;7.68;;;;;;;7.73;100.00;101440.78;2616239;31;20166;-55
2023/01/30 02:05:09;;;;;;;17.63;7.97;;;;;;;7.70;100.00;101432.97;2616157;36;20053;-54
2023/01/30 02:07:42;;;;;;;15.18;7.75;;;;;;;7.77;100.00;101433.38;2616694;31;20073;-55
2023/01/30 02:10:15;;;;;;;17.13;7.75;;;;;;;7.79;100.00;101447.53;2616187;36;20053;-56
2023/01/30 02:12:47;;;;;;;21.80;7.63;;;;;;;7.78;100.00;101441.31;2616442;36;20031;-57
2023/01/30 02:15:15;;;;;;;18.33;6.85;;;;;;;7.85;100.00;101436.41;2616418;31;20034;-57
2023/01/30 02:17:44;;;;;;;19.52;7.15;;;;;;;7.69;100.00;101434.75;2616701;36;20033;-57
2023/01/30 02:20:23;;;;;;;19.80;6.88;;;;;;;7.61;100.00;101428.19;2616111;36;20038;-55
2023/01/30 02:23:27;;;;;;;17.55;6.85;;;;;;;7.75;100.00;101441.53;2616569;36;20633;-55
2023/01/30 02:26:31;;;;;;;15.88;7.07;;;;;;;7.66;100.00;101432.28;2616840;36;20027;-53
2023/01/30 02:29:37;;;;;;;23.70;7.50;;;;;;;7.80;100.00;101433.19;2616376;31;20425;-56
2023/01/30 02:32:14;;;;;;;18.08;7.05;;;;;;;7.78;100.00;101430.59;2616578;31;20027;-58
2023/01/30 02:34:50;;;;;;;13.82;5.70;;;;;;;7.80;100.00;101434.06;2616757;36;20050;-57
2023/01/30 02:37:35;;;;;;;14.75;6.30;;;;;;;7.86;100.00;101435.44;2617155;36;20437;-55
2023/01/30 02:40:17;;;;;;;24.15;7.20;;;;;;;7.73;100.00;101438.13;2615875;36;20065;-58
2023/01/30 02:42:53;;;;;;;14.00;5.63;;;;;;;7.75;100.00;101429.97;2616817;36;20045;-56
2023/01/30 02:45:31;;;;;;;16.90;5.53;;;;;;;7.66;100.00;101415.38;2615201;36;20049;-54
2023/01/30 02:48:05;;;;;;;18.00;5.60;;;;;;;7.74;100.00;101433.59;2616264;36;20543;-54
2023/01/30 02:50:39;;;;;;;18.58;6.75;;;;;;;7.78;100.00;101424.41;2615569;36;20275;-56
2023/01/30 02:53:08;;;;;;;14.77;6.75;;;;;;;7.76;100.00;101420.94;2616566;36;20041;-56
2023/01/30 02:55:37;;;;;;;14.20;5.82;;;;;;;7.91;100.00;101425.28;2616704;36;20037;-52
2023/01/30 02:58:06;;;;;;;12.85;6.03;;;;;;;7.95;100.00;101421.44;2616862;31;20535;-59
2023/01/30 03:00:52;;;;;;;17.40;5.88;;;;;;;7.89;100.00;101421.81;2616477;36;20035;-53
2023/01/30 03:03:40;;;;;;;16.02;6.78;;;;;;;7.93;100.00;101417.97;2616108;36;20050;-58
2023/01/30 03:06:46;;;;;;;14.98;4.95;;;;;;;8.01;100.00;101415.66;2616445;31;20038;-59
2023/01/30 03:09:22;;;;;;;20.75;6.85;;;;;;;8.01;100.00;101407.59;2615809;36;20065;-57
2023/01/30 03:12:05;;;;;;;17.77;5.82;;;;;;;8.03;100.00;101402.97;2616890;36;20045;-57
2023/01/30 03:14:41;;;;;;;19.63;5.30;;;;;;;8.01;100.00;101394.19;2616058;31;20027;-57
2023/01/30 03:17:11;;;;;;;12.48;5.50;;;;;;;8.15;100.00;101395.91;2616248;36;20042;-57
2023/01/30 03:19:42;;;;;;;21.35;6.47;;;;;;;8.09;100.00;101399.00;2616253;36;20039;-57
2023/01/30 03:22:17;;;;;;;20.17;5.40;;;;;;;8.12;100.00;101403.31;2617219;36;20050;-57
2023/01/30 03:24:45;;;;;;;11.73;4.88;;;;;;;8.11;100.00;101390.88;2616094;36;20046;-53
2023/01/30 03:27:14;;;;;;;20.15;4.78;;;;;;;8.00;100.00;101381.75;2616551;36;20026;-57
2023/01/30 03:29:43;;;;;;;15.02;5.22;;;;;;;8.07;100.00;101396.44;2616050;31;20023;-53
2023/01/30 03:32:11;;;;;;;19.75;4.85;;;;;;;8.08;100.00;101381.22;2616852;36;20034;-58
2023/01/30 03:34:42;;;;;;;11.52;4.80;;;;;;;8.13;100.00;101381.75;2616609;36;20034;-59
2023/01/30 03:37:11;;;;;;;16.17;4.28;;;;;;;8.02;100.00;101387.88;2616902;36;20019;-59
2023/01/30 03:39:39;;;;;;;16.30;4.90;;;;;;;8.06;100.00;101385.84;2617825;36;20447;-55
2023/01/30 03:42:08;;;;;;;16.02;5.03;;;;;;;8.02;100.00;101390.56;2615447;36;20042;-58
2023/01/30 03:44:36;;;;;;;15.73;4.30;;;;;;;8.13;100.00;101380.91;2615291;36;20038;-53
2023/01/30 03:47:05;;;;;;;11.02;4.53;;;;;;;7.99;100.00;101382.69;2616394;36;20382;-55
2023/01/30 03:49:33;;;;;;;11.15;4.95;;;;;;;8.08;100.00;101370.47;2616327;36;20035;-55
2023/01/30 03:52:04;;;;;;;16.77;5.95;;;;;;;8.11;100.00;101378.31;2616598;36;20037;-56
2023/01/30 03:54:33;;;;;;;14.43;5.18;;;;;;;8.13;100.00;101375.56;2615599;36;20030;-57
2023/01/30 03:57:01;;;;;;;19.48;5.82;;;;;;;8.17;100.00;101377.91;2616340;36;20041;-58
2023/01/30 03:59:29;;;;;;;12.50;5.20;;;;;;;8.17;100.00;101379.72;2616452;31;20026;-55
2023/01/30 04:01:58;;;;;;;16.37;5.23;;;;;;;8.21;100.00;101379.38;2616170;36;20137;-56
2023/01/30 04:04:26;;;;;;;12.25;5.25;;;;;;;8.27;100.00;101383.47;2615709;36;20267;-54
2023/01/30 04:06:55;;;;;;;15.37;5.13;;;;;;;8.22;100.00;101382.94;2616835;31;20131;-53
2023/01/30 04:09:25;;;;;;;21.30;5.38;;;;;;;8.20;100.00;101385.72;2616306;36;20045;-57
2023/01/30 04:11:54;;;;;;;18.98;5.25;;;;;;;8.24;100.00;101381.00;2616200;36;20046;-56
2023/01/30 04:14:22;;;;;;;14.00;5.13;;;;;;;8.26;100.00;101387.13;2616119;36;20034;-58
2023/01/30 04:16:51;;;;;;;14.07;4.60;;;;;;;8.26;100.00;101381.75;2615860;36;20116;-54
2023/01/30 04:19:19;;;;;;;23.85;5.05;;;;;;;8.27;100.00;101391.50;2616518;36;20034;-56
2023/01/30 04:21:47;;;;;;;15.35;5.13;;;;;;;8.19;100.00;101392.03;2616445;36;20039;-57
2023/01/30 04:24:15;;;;;;;14.68;5.00;;;;;;;8.25;100.00;101380.03;2615542;36;20034;-54
2023/01/30 04:26:46;;;;;;;13.32;5.68;;;;;;;8.25;100.00;101386.25;2616149;36;20023;-56
2023/01/30 04:29:15;;;;;;;14.80;4.40;;;;;;;8.21;100.00;101383.91;2616438;36;20033;-57
2023/01/30 04:31:43;;;;;;;19.50;4.72;;;;;;;8.26;100.00;101381.75;2616097;36;20037;-59
2023/01/30 04:34:11;;;;;;;20.08;5.60;;;;;;;8.21;100.00;101386.56;2615502;36;20049;-55
2023/01/30 04:36:40;;;;;;;16.50;6.43;;;;;;;8.13;100.00;101386.28;2617081;31;20453;-57
2023/01/30 04:39:08;;;;;;;12.30;4.70;;;;;;;8.12;100.00;101380.03;2616808;36;20567;-55
2023/01/30 04:41:37;;;;;;;11.55;4.30;;;;;;;8.14;100.00;101382.59;2615922;36;20559;-54
2023/01/30 04:44:08;;;;;;;12.35;4.65;;;;;;;8.18;100.00;101392.16;2615839;36;20038;-55
2023/01/30 04:46:36;;;;;;;11.38;4.30;;;;;;;8.18;100.00;101390.31;2616173;36;20053;-55
2023/01/30 04:49:05;;;;;;;16.40;4.63;;;;;;;8.17;100.00;101387.75;2616102;36;20031;-56
2023/01/30 04:51:33;;;;;;;15.65;4.47;;;;;;;8.17;100.00;101383.25;2616017;36;20295;-55
2023/01/30 04:54:01;;;;;;;11.77;4.53;;;;;;;8.16;100.00;101378.84;2615848;36;20558;-55
2023/01/30 04:56:30;;;;;;;13.82;4.13;;;;;;;8.22;100.00;101380.25;2616290;36;20034;-56
2023/01/30 04:58:58;;;;;;;12.07;4.05;;;;;;;8.24;100.00;101375.63;2616174;36;20030;-57
2023/01/30 05:01:32;;;;;;;17.33;4.28;;;;;;;8.18;100.00;101376.91;2616126;36;20033;-55
2023/01/30 05:04:01;;;;;;;17.90;4.03;;;;;;;8.19;100.00;101375.97;2616030;36;20450;-57
2023/01/30 05:06:30;;;;;;;10.53;3.83;;;;;;;8.19;100.00;101385.84;2615978;36;20050;-57
2023/01/30 05:08:58;;;;;;;10.43;3.90;;;;;;;8.14;100.00;101382.59;2616396;36;20470;-58
2023/01/30 05:11:28;;;;;;;20.17;3.80;;;;;;;8.14;100.00;101385.28;2615744;36;20031;-55
2023/01/30 05:13:57;;;;;;;10.48;3.38;;;;;;;8.06;100.00;101384.00;2615617;36;20042;-57
2023/01/30 05:16:26;;;;;;;18.58;4.55;;;;;;;8.04;100.00;101393.13;2615611;36;20038;-55
2023/01/30 05:19:03;;;;;;;17.63;3.17;;;;;;;8.02;100.00;101393.25;2615301;54;20046;-53
2023/01/30 05:21:31;;;;;;;13.82;2.90;;;;;;;7.89;100.00;101390.53;2615885;36;20027;-51
2023/01/30 05:23:59;;;;;;;15.32;3.80;;;;;;;7.88;100.00;101393.31;2616554;36;20026;-52
2023/01/30 05:26:28;;;;;;;13.52;2.80;;;;;;;7.82;100.00;101399.13;2615838;31;20035;-56
2023/01/30 05:28:59;;;;;;;15.27;3.93;;;;;;;7.77;100.00;101406.59;2615825;31;20122;-53
2023/01/30 05:31:27;;;;;;;13.45;2.80;;;;;;;7.55;100.00;101413.41;2616080;36;20366;-58
2023/01/30 05:33:56;;;;;;;13.67;2.87;;;;;;;7.59;100.00;101409.56;2616216;36;20031;-56
2023/01/30 05:36:26;;;;;;;13.38;2.65;;;;;;;7.59;100.00;101412.22;2616833;36;20046;-51
2023/01/30 05:38:55;;;;;;;12.70;2.95;;;;;;;7.54;100.00;101419.72;2616769;36;20041;-54
2023/01/30 05:41:23;;;;;;;16.98;3.00;;;;;;;7.48;100.00;101417.44;2617170;36;20571;-53
2023/01/30 05:43:52;;;;;;;22.55;3.35;;;;;;;7.28;100.00;101422.31;2617416;31;20431;-53
2023/01/30 05:46:20;;;;;;;12.38;3.17;;;;;;;7.17;100.00;101414.16;2616563;36;20034;-54
2023/01/30 05:48:49;;;;;;;10.47;2.63;;;;;;;7.19;100.00;101407.72;2616410;36;20035;-51
2023/01/30 05:51:20;;;;;;;19.92;3.08;;;;;;;7.05;100.00;101409.56;2616681;36;20035;-52
2023/01/30 05:53:51;;;;;;;9.90;2.83;;;;;;;7.02;100.00;101410.63;2617104;36;20048;-55
2023/01/30 05:56:21;;;;;;;16.83;3.30;;;;;;;6.94;100.00;101404.91;2616813;36;20030;-54
2023/01/30 05:58:53;;;;;;;13.77;2.85;;;;;;;6.92;100.00;101413.06;2615539;36;20045;-49
2023/01/30 06:01:22;;;;;;;18.25;2.55;;;;;;;6.90;100.00;101417.63;2613686;36;20042;-52
2023/01/30 06:03:50;;;;;;;49.80;7.97;;;;;;;6.78;100.00;101415.75;2616360;36;20578;-52
2023/01/30 06:06:19;;;;;;;13.63;2.78;;;;;;;6.76;100.00;101417.66;2615502;36;20146;-55
2023/01/30 06:08:54;;;;;;;12.63;2.83;;;;;;;6.71;100.00;101436.66;2612301;36;20046;-54
2023/01/30 06:11:22;;;;;;;25.65;3.88;;;;;;;6.63;100.00;101431.81;2616381;36;20039;-52
2023/01/30 06:13:51;;;;;;;15.20;2.60;;;;;;;6.67;100.00;101427.13;2616263;36;20057;-57
2023/01/30 06:16:20;;;;;;;12.52;2.30;;;;;;;6.62;100.00;101432.75;2614804;36;20042;-54
2023/01/30 06:18:48;;;;;;;21.40;2.97;;;;;;;6.60;100.00;101442.69;2615985;36;20031;-54
2023/01/30 06:21:17;;;;;;;18.97;3.40;;;;;;;6.65;100.00;101448.63;2614878;36;20038;-55
2023/01/30 06:23:45;;;;;;;18.33;2.80;;;;;;;6.56;100.00;101451.88;2615428;36;20038;-51
2023/01/30 06:26:16;;;;;;;15.18;2.70;;;;;;;6.50;100.00;101457.59;2614866;36;20026;-56
2023/01/30 06:28:45;;;;;;;20.80;3.00;;;;;;;6.56;100.00;101446.50;2616097;36;20060;-55
2023/01/30 06:31:13;;;;;;;17.15;3.15;;;;;;;6.56;100.00;101449.19;2613048;36;20046;-57
2023/01/30 06:33:42;;;;;;;17.10;2.35;;;;;;;6.51;100.00;101448.63;2615372;36;20031;-53
2023/01/30 06:36:10;;;;;;;;;;;;;;;6.60;100.00;101448.03;2615468;31;20446;-55
2023/01/30 06:38:39;;;;;;;15.30;2.88;;;;;;;6.53;100.00;101454.72;2615922;36;19953;-54
2023/01/30 06:41:08;;;;;;;19.25;2.45;;;;;;;6.44;100.00;101439.25;2614667;36;20023;-50
2023/01/30 06:43:39;;;;;;;15.77;2.55;;;;;;;6.41;100.00;101447.47;2615766;36;20034;-53
2023/01/30 06:46:07;;;;;;;12.60;2.38;;;;;;;6.52;100.00;101444.97;2615336;36;20022;-51
2023/01/30 06:48:35;;;;;;;22.92;3.17;;;;;;;6.57;100.00;101436.69;2615964;36;20046;-52
2023/01/30 06:51:04;;;;;;;17.02;2.55;;;;;;;6.55;100.00;101447.50;2615828;36;20606;-52
2023/01/30 06:53:32;;;;;;;19.52;2.83;;;;;;;6.52;100.00;101447.66;2615271;36;20042;-53
2023/01/30 06:56:01;;;;;;;19.02;2.55;;;;;;;6.64;100.00;101464.75;2616756;36;20038;-52
2023/01/30 06:58:29;;;;;;;15.20;3.75;;;;;;;6.69;100.00;101457.31;2616659;36;20038;-52
2023/01/30 07:01:01;;;;;;;18.10;3.00;;;;;;;6.69;100.00;101476.03;2616230;36;20026;-57
2023/01/30 07:03:29;;;;;;;25.25;3.28;;;;;;;6.63;100.00;101471.94;2614514;31;21025;-52
2023/01/30 07:05:57;;;;;;;22.40;3.55;;;;;;;6.57;100.00;101468.78;2616852;31;20038;-53
2023/01/30 07:08:26;;;;;;;13.43;3.00;;;;;;;6.51;100.00;101470.03;2616699;36;20038;-53
2023/01/30 07:10:54;;;;;;;31.05;4.78;;;;;;;6.52;100.00;101487.75;2616203;36;20043;-53
2023/01/30 07:13:22;;;;;;;14.50;3.22;;;;;;;6.51;100.00;101480.72;2616062;36;20030;-53
2023/01/30 07:15:51;;;;;;;12.90;2.88;;;;;;;6.48;100.00;101496.97;2616748;36;20042;-55
2023/01/30 07:18:22;;;;;;;21.88;3.42;;;;;;;6.45;100.00;101492.66;2615308;31;20026;-52
2023/01/30 07:20:50;;;;;;;22.13;2.85;;;;;;;6.51;100.00;101499.44;2616648;36;20570;-56
2023/01/30 07:23:21;;;;;;;18.40;2.90;;;;;;;6.42;100.00;101492.84;2616086;36;20038;-53
2023/01/30 07:25:49;;;;;;;26.05;4.25;;;;;;;6.47;100.00;101485.38;2616183;36;20026;-52
2023/01/30 07:28:18;;;;;;;11.10;2.88;;;;;;;6.58;100.00;101495.44;2615713;36;20442;-53
2023/01/30 07:30:46;;;;;;;21.48;2.92;;;;;;;6.55;100.00;101486.72;2616868;36;20038;-54
2023/01/30 07:33:14;;;;;;;16.75;3.03;;;;;;;6.61;100.00;101494.38;2615652;36;20033;-54
2023/01/30 07:35:45;;;;;;;24.83;2.88;;;;;;;6.52;100.00;101493.13;2615952;36;20086;-55
2023/01/30 07:38:14;;;;;;;19.40;3.55;;;;;;;6.53;100.00;101500.19;2616467;31;20034;-56
2023/01/30 07:40:42;;;;;;;19.50;3.17;;;;;;;6.58;100.00;101492.75;2616371;36;20035;-55
2023/01/30 07:43:13;;;;;;;21.98;3.42;;;;;;;6.49;100.00;101501.34;2616479;36;20039;-54
2023/01/30 07:45:43;;;;;;;14.65;2.90;;;;;;;6.53;100.00;101488.66;2616530;36;20041;-54
2023/01/30 07:48:13;;;;;;;19.92;3.42;;;;;;;6.58;100.00;101489.22;2615416;36;20026;-54
2023/01/30 07:50:44;;;;;;;14.88;2.72;;;;;;;6.52;100.00;101481.56;2616727;36;20431;-55
2023/01/30 07:53:15;;;;;;;15.77;2.85;;;;;;;6.52;100.00;101493.13;2616831;36;20027;-51
2023/01/30 07:55:44;;;;;;;17.73;3.05;;;;;;;6.51;100.00;101491.41;2614973;36;20054;-59
2023/01/30 07:58:15;;;;;;;19.70;3.40;;;;;;;6.54;100.00;101504.59;2616332;36;20038;-55
2023/01/30 08:00:43;;;;;;;20.90;3.42;;;;;;;6.51;100.00;101506.59;2617023;31;20523;-51
2023/01/30 08:03:14;;;;;;;14.82;2.65;;;;;;;6.54;100.00;101515.28;2615308;31;20035;-54
2023/01/30 08:05:47;;;;;;;14.57;2.50;;;;;;;6.47;100.00;101527.31;2615486;36;20039;-57
2023/01/30 08:08:15;;;;;;;16.55;3.05;;;;;;;6.48;100.00;101513.00;2616484;36;20439;-54
2023/01/30 08:10:44;;;;;;;13.82;2.65;;;;;;;6.46;100.00;101522.91;2617253;31;20577;-54
2023/01/30 08:13:13;;;;;;;16.80;3.55;;;;;;;6.54;100.00;101523.31;2616249;36;20567;-53
2023/01/30 08:15:41;;;;;;;11.05;2.45;;;;;;;6.61;100.00;101524.66;2615613;36;20077;-57
2023/01/30 08:18:09;;;;;;;14.60;2.37;;;;;;;6.56;100.00;101532.09;2615527;36;20038;-53
2023/01/30 08:20:38;;;;;;;13.57;2.80;;;;;;;6.66;100.00;101538.59;2615886;31;20031;-56
2023/01/30 08:23:09;;;;;;;18.55;3.40;;;;;;;6.64;100.00;101545.00;2615935;36;20640;-54
2023/01/30 08:25:38;;;;;;;13.25;2.55;;;;;;;6.69;100.00;101531.38;2616093;36;20065;-55
2023/01/30 08:28:06;;;;;;;19.50;2.50;;;;;;;6.64;100.00;101535.19;2616231;36;20040;-56
2023/01/30 08:30:35;;;;;;;17.87;3.23;;;;;;;6.77;100.00;101519.25;2616208;36;20041;-54
2023/01/30 08:33:03;;;;;;;19.30;3.07;;;;;;;6.82;100.00;101527.81;2615785;36;20890;-52
2023/01/30 08:35:31;;;;;;;18.65;3.05;;;;;;;6.91;100.00;101531.75;2615294;36;20034;-56
2023/01/30 08:38:02;;;;;;;12.90;3.15;;;;;;;6.89;100.00;101528.31;2616148;36;20053;-50
2023/01/30 08:40:33;;;;;;;19.48;3.15;;;;;;;6.89;100.00;101548.84;2615821;36;20042;-55
2023/01/30 08:43:02;;;;;;;16.15;2.92;;;;;;;6.95;100.00;101541.31;2616610;36;20026;-56
2023/01/30 08:45:30;;;;;;;26.02;3.88;;;;;;;6.92;100.00;101548.66;2615387;36;20027;-58
2023/01/30 08:47:59;;;;;;;20.45;2.95;;;;;;;6.98;100.00;101543.78;2615995;36;20045;-55
2023/01/30 08:50:28;;;;;;;13.50;3.45;;;;;;;7.03;100.00;101551.53;2615392;36;20049;-56
2023/01/30 08:52:56;;;;;;;18.75;3.00;;;;;;;6.98;100.00;101543.78;2616709;36;20453;-57
2023/01/30 08:55:25;;;;;;;17.60;2.88;;;;;;;7.05;100.00;101548.75;2615921;36;20038;-59
2023/01/30 08:57:58;;;;;;;15.95;3.40;;;;;;;7.13;100.00;101552.66;2616290;36;20030;-56
2023/01/30 09:00:26;;;;;;;25.83;3.05;;;;;;;7.08;100.00;101559.25;2615910;36;20046;-55
2023/01/30 09:02:55;;;;;;;15.80;2.90;;;;;;;7.04;100.00;101563.09;2615978;36;20042;-55
2023/01/30 09:05:23;;;;;;;11.55;2.63;;;;;;;7.11;100.00;101573.34;2615356;36;20045;-54
2023/01/30 09:07:52;;;;;;;26.77;4.15;;;;;;;7.09;100.00;101572.56;2616345;36;20039;-53
2023/01/30 09:10:21;;;;;;;12.00;2.58;;;;;;;7.09;100.00;101587.75;2615819;36;20432;-57
2023/01/30 09:12:50;;;;;;;18.45;3.20;;;;;;;7.04;100.00;101595.19;2615128;36;20053;-53
2023/01/30 09:15:20;;;;;;;12.33;2.17;;;;;;;7.06;100.00;101575.41;2615360;36;20038;-55
2023/01/30 09:17:49;;;;;;;16.20;2.67;;;;;;;7.11;100.00;101591.19;2615155;36;20035;-57
2023/01/30 09:20:19;;;;;;;19.02;3.17;;;;;;;7.06;100.00;101583.44;2615181;36;20031;-56
2023/01/30 09:22:48;;;;;;;12.82;3.50;;;;;;;7.25;100.00;101583.16;2615623;36;20573;-56
2023/01/30 09:25:16;;;;;;;15.10;3.22;;;;;;;7.17;100.00;101590.84;2616367;36;20071;-54
2023/01/30 09:27:45;;;;;;;17.43;3.97;;;;;;;7.15;100.00;101588.22;2616869;31;20416;-50
2023/01/30 09:30:14;;;;;;;17.58;3.35;;;;;;;7.27;100.00;101597.28;2615279;36;20053;-54
2023/01/30 09:32:45;;;;;;;;;;;;;;;7.33;100.00;101586.22;2616684;36;20042;-57
2023/01/30 09:35:14;;;;;;;15.20;3.35;;;;;;;7.29;100.00;101595.41;2614989;36;19962;-52
2023/01/30 09:37:49;;;;;;;21.00;2.70;;;;;;;7.28;100.00;101596.34;2614885;36;20137;-55
2023/01/30 09:40:20;;;;;;;21.13;4.10;;;;;;;7.28;100.00;101591.00;2615399;36;20536;-53
2023/01/30 09:43:12;;;;;;;28.02;3.25;;;;;;;7.32;100.00;101589.00;2616708;36;20443;-55
2023/01/30 09:45:53;;;;;;;21.33;3.22;;;;;;;7.29;100.00;101598.09;2614923;36;21190;-53
2023/01/30 09:48:31;;;;;;;18.08;2.90;;;;;;;7.34;100.00;101606.66;2614848;36;20052;-53
2023/01/30 09:51:25;;;;;;;20.52;3.33;;;;;;;7.42;100.00;101611.56;2616664;31;20467;-50
2023/01/30 09:54:10;;;;;;;19.20;3.33;;;;;;;7.31;100.00;101609.53;2615553;36;20035;-54
2023/01/30 09:56:38;;;;;;;17.45;3.05;;;;;;;7.40;100.00;101617.97;2615968;31;20069;-55
2023/01/30 09:59:07;;;;;;;19.63;2.97;;;;;;;7.37;100.00;101619.88;2615852;36;20030;-54
2023/01/30 10:01:49;;;;;;;15.52;3.22;;;;;;;7.32;100.00;101621.13;2615431;36;20550;-54
2023/01/30 10:04:27;;;;;;;10.88;2.58;;;;;;;7.37;100.00;101630.56;2615248;36;20042;-55
2023/01/30 10:07:03;;;;;;;15.00;2.65;;;;;;;7.36;100.00;101622.63;2615666;36;20059;-56
2023/01/30 10:09:44;;;;;;;19.52;3.33;;;;;;;7.46;100.00;101644.38;2615744;36;20038;-61
2023/01/30 10:12:25;;;;;;;10.70;2.90;;;;;;;7.50;100.00;101622.63;2615677;31;20057;-54
2023/01/30 10:15:18;;;;;;;14.82;2.95;;;;;;;7.28;100.00;101620.44;2615646;36;20031;-53
2023/01/30 10:18:00;;;;;;;13.82;2.97;;;;;;;7.41;100.00;101639.31;2614340;36;20067;-54
2023/01/30 10:20:42;;;;;;;12.02;3.33;;;;;;;7.46;100.00;101645.22;2616232;36;20068;-54
2023/01/30 10:23:27;;;;;;;16.05;3.58;;;;;;;7.31;100.00;101635.47;2616441;36;20038;-58
2023/01/30 10:25:59;;;;;;;10.45;2.70;;;;;;;7.45;100.00;101629.25;2616747;31;20034;-57
2023/01/30 10:28:31;;;;;;;19.60;2.95;;;;;;;7.44;100.00;101640.94;2614376;31;20030;-52
2023/01/30 10:31:05;;;;;;;15.63;3.42;;;;;;;7.45;100.00;101653.34;2614694;36;20053;-53
2023/01/30 10:33:39;;;;;;;19.65;3.42;;;;;;;7.51;100.00;101642.28;2613973;36;20031;-58
2023/01/30 10:36:17;;;;;;;21.75;3.13;;;;;;;7.41;100.00;101646.47;2615036;36;20026;-56
2023/01/30 10:38:49;;;;;;;17.15;2.97;;;;;;;7.64;100.00;101640.53;2616942;31;20035;-54
2023/01/30 10:41:26;;;;;;;20.55;3.88;;;;;;;7.55;100.00;101654.47;2617002;36;20045;-55
2023/01/30 10:44:01;;;;;;;25.42;2.92;;;;;;;7.65;100.00;101649.41;2616386;36;20038;-57
2023/01/30 10:46:42;;;;;;;14.13;2.60;;;;;;;7.69;100.00;101649.13;2617006;36;20057;-56
2023/01/30 10:49:16;;;;;;;14.82;2.75;;;;;;;7.78;100.00;101647.66;2616813;31;20064;-53
2023/01/30 10:51:57;;;;;;;19.92;2.72;;;;;;;7.76;100.00;101651.41;2617067;36;20049;-56
2023/01/30 10:54:31;;;;;;;17.70;2.40;;;;;;;7.62;100.00;101649.63;2616761;36;20037;-54
2023/01/30 10:57:06;;;;;;;26.60;3.83;;;;;;;7.51;100.00;101658.34;2616308;36;20038;-52
2023/01/30 10:59:47;;;;;;;16.73;2.88;;;;;;;7.63;100.00;101641.47;2616967;36;20173;-57
2023/01/30 11:02:27;;;;;;;13.43;2.67;;;;;;;7.82;100.00;101645.66;2616370;31;20555;-54
2023/01/30 11:05:00;;;;;;;13.32;2.45;;;;;;;7.73;100.00;101641.75;2616288;36;20022;-53
2023/01/30 11:07:33;;;;;;;16.33;2.78;;;;;;;7.79;100.00;101651.19;2616240;36;20606;-54
2023/01/30 11:10:02;;;;;;;17.35;2.40;;;;;;;7.84;100.00;101655.31;2616442;36;20027;-54
2023/01/30 11:12:30;;;;;;;15.82;2.95;;;;;;;7.79;100.00;101645.84;2616978;36;20049;-57
2023/01/30 11:15:02;;;;;;;15.70;3.30;;;;;;;7.94;100.00;101655.59;2616539;36;20027;-52
2023/01/30 11:17:34;;;;;;;14.57;2.88;;;;;;;7.91;100.00;101653.09;2614836;36;20138;-58
2023/01/30 11:20:09;;;;;;;23.80;3.58;;;;;;;7.92;100.00;101657.53;2615746;36;20022;-56
2023/01/30 11:22:47;;;;;;;20.63;4.20;;;;;;;7.93;100.00;101648.50;2615936;36;20035;-54
2023/01/30 11:25:19;;;;;;;21.13;3.05;;;;;;;7.99;100.00;101653.44;2616125;36;20053;-58
2023/01/30 11:27:55;;;;;;;21.58;2.58;;;;;;;8.07;100.00;101656.50;2615413;36;20045;-55
2023/01/30 11:30:29;;;;;;;15.38;2.95;;;;;;;8.11;100.00;101658.97;2614320;36;20050;-55
2023/01/30 11:33:08;;;;;;;15.20;3.05;;;;;;;7.99;100.00;101653.44;2616053;31;20030;-53
2023/01/30 11:35:44;;;;;;;18.73;3.30;;;;;;;8.02;100.00;101658.63;2616435;36;20027;-53
2023/01/30 11:38:23;;;;;;;24.95;4.63;;;;;;;8.03;100.00;101662.16;2616655;36;20027;-58
2023/01/30 11:40:52;;;;;;;20.80;2.88;;;;;;;8.20;100.00;101661.06;2616233;36;20035;-54
2023/01/30 11:43:20;;;;;;;17.90;3.23;;;;;;;8.19;100.00;101670.06;2616622;36;20042;-58